Time,TemperatureF,DewpointF,PressureIn,WindDirection,WindDirectionDegrees,WindSpeedMPH,WindSpeedGustMPH,Humidity,HourlyPrecipIn,Conditions,Clouds,dailyrainin,SoftwareType,DateUTC
2013-03-09 00:04:00,56.8,55.4,29.81,North,-999,-999.0,-999.0,95,-99.99,,,-99.99,Netatmo,2013-03-08 23:04:00,
2013-03-09 00:09:00,56.8,55.4,29.81,North,-999,-999.0,-999.0,95,-99.99,,,-99.99,Netatmo,2013-03-08 23:09:00,
2013-03-09 00:15:00,56.8,55.4,29.81,North,-999,-999.0,-999.0,95,-99.99,,,-99.99,Netatmo,2013-03-08 23:15:00,
2013-03-09 00:20:00,56.8,55.4,29.81,North,-999,-999.0,-999.0,95,-99.99,,,-99.99,Netatmo,2013-03-08 23:20:00,
2013-03-09 02:30:00,55.8,53.1,29.82,North,-999,-999.0,-999.0,91,-99.99,,,-99.99,Netatmo,2013-03-09 01:30:00,
2013-03-09 02:35:00,55.8,53.1,29.83,North,-999,-999.0,-999.0,91,-99.99,,,-99.99,Netatmo,2013-03-09 01:35:00,
2013-03-09 02:40:00,55.8,53.1,29.83,North,-999,-999.0,-999.0,91,-99.99,,,-99.99,Netatmo,2013-03-09 01:40:00,
2013-03-09 04:31:00,55.8,53.1,29.81,North,-999,-999.0,-999.0,91,-99.99,,,-99.99,Netatmo,2013-03-09 03:31:00,
2013-03-09 06:24:00,55.9,53.3,29.83,North,-999,-999.0,-999.0,91,-99.99,,,-99.99,Netatmo,2013-03-09 05:24:00,
2013-03-09 06:29:00,55.9,53.3,29.83,North,-999,-999.0,-999.0,91,-99.99,,,-99.99,Netatmo,2013-03-09 05:29:00,
2013-03-09 06:35:00,55.9,53.3,29.83,North,-999,-999.0,-999.0,91,-99.99,,,-99.99,Netatmo,2013-03-09 05:35:00,
2013-03-09 06:40:00,55.9,53.3,29.83,North,-999,-999.0,-999.0,91,-99.99,,,-99.99,Netatmo,2013-03-09 05:40:00,
2013-03-09 08:32:00,56.8,53.9,29.85,North,-999,-999.0,-999.0,90,-99.99,,,-99.99,Netatmo,2013-03-09 07:32:00,
2013-03-09 08:47:00,57.4,54.4,29.85,North,-999,-999.0,-999.0,90,-99.99,,,-99.99,Netatmo,2013-03-09 07:47:00,
2013-03-09 08:52:00,57.4,54.4,29.85,North,-999,-999.0,-999.0,90,-99.99,,,-99.99,Netatmo,2013-03-09 07:52:00,
2013-03-09 08:57:00,57.6,54.6,29.85,North,-999,-999.0,-999.0,90,-99.99,,,-99.99,Netatmo,2013-03-09 07:57:00,
2013-03-09 09:02:00,57.6,54.6,29.85,North,-999,-999.0,-999.0,90,-99.99,,,-99.99,Netatmo,2013-03-09 08:02:00,
2013-03-09 09:08:00,57.7,54.8,29.86,North,-999,-999.0,-999.0,90,-99.99,,,-99.99,Netatmo,2013-03-09 08:08:00,
2013-03-09 09:40:00,58.3,55.3,29.87,North,-999,-999.0,-999.0,90,-99.99,,,-99.99,Netatmo,2013-03-09 08:40:00,
2013-03-09 11:25:00,59.2,56.5,29.89,North,-999,-999.0,-999.0,91,-99.99,,,-99.99,Netatmo,2013-03-09 10:25:00,
2013-03-09 15:10:00,61.3,57.4,29.84,North,-999,-999.0,-999.0,87,-99.99,,,-99.99,Netatmo,2013-03-09 14:10:00,
2013-03-09 17:03:00,61.2,56.0,29.82,North,-999,-999.0,-999.0,83,-99.99,,,-99.99,Netatmo,2013-03-09 16:03:00,
2013-03-09 17:08:00,61.2,56.0,29.82,North,-999,-999.0,-999.0,83,-99.99,,,-99.99,Netatmo,2013-03-09 16:08:00,
2013-03-09 18:59:00,59.2,53.4,29.81,North,-999,-999.0,-999.0,81,-99.99,,,-99.99,Netatmo,2013-03-09 17:59:00,
2013-03-09 19:10:00,59.0,53.2,29.81,North,-999,-999.0,-999.0,81,-99.99,,,-99.99,Netatmo,2013-03-09 18:10:00,
2013-03-09 19:15:00,58.8,53.0,29.81,North,-999,-999.0,-999.0,81,-99.99,,,-99.99,Netatmo,2013-03-09 18:15:00,
2013-03-09 19:20:00,58.8,53.0,29.81,North,-999,-999.0,-999.0,81,-99.99,,,-99.99,Netatmo,2013-03-09 18:20:00,
2013-03-09 21:11:00,57.9,54.1,29.81,North,-999,-999.0,-999.0,87,-99.99,,,-99.99,Netatmo,2013-03-09 20:11:00,
2013-03-09 23:03:00,57.6,54.6,29.79,North,-999,-999.0,-999.0,90,-99.99,,,-99.99,Netatmo,2013-03-09 22:03:00,